sensor_id;sensor_type;location;lat;lon;timestamp;temperature;humidity
71082;SHT31;58740;50.672;18.690;2023-05-10T00:01:34;9.76;53.27
71082;SHT31;58740;50.672;18.690;2023-05-10T00:04:03;9.75;53.33
71082;SHT31;58740;50.672;18.690;2023-05-10T00:06:31;9.73;53.42
71082;SHT31;58740;50.672;18.690;2023-05-10T00:08:59;9.70;53.47
71082;SHT31;58740;50.672;18.690;2023-05-10T00:11:26;9.67;53.56
71082;SHT31;58740;50.672;18.690;2023-05-10T00:13:54;9.64;53.69
71082;SHT31;58740;50.672;18.690;2023-05-10T00:16:22;9.62;53.74
71082;SHT31;58740;50.672;18.690;2023-05-10T00:18:50;9.60;53.88
71082;SHT31;58740;50.672;18.690;2023-05-10T00:21:18;9.60;53.99
71082;SHT31;58740;50.672;18.690;2023-05-10T00:23:45;9.57;54.01
71082;SHT31;58740;50.672;18.690;2023-05-10T00:26:13;9.55;54.11
71082;SHT31;58740;50.672;18.690;2023-05-10T00:28:41;9.53;54.17
71082;SHT31;58740;50.672;18.690;2023-05-10T00:31:09;9.50;54.26
71082;SHT31;58740;50.672;18.690;2023-05-10T00:33:37;9.47;54.33
71082;SHT31;58740;50.672;18.690;2023-05-10T00:36:04;9.45;54.42
71082;SHT31;58740;50.672;18.690;2023-05-10T00:38:34;9.44;54.55
71082;SHT31;58740;50.672;18.690;2023-05-10T00:41:02;9.40;54.57
71082;SHT31;58740;50.672;18.690;2023-05-10T00:43:30;9.38;54.65
71082;SHT31;58740;50.672;18.690;2023-05-10T00:45:58;9.37;54.73
71082;SHT31;58740;50.672;18.690;2023-05-10T00:48:26;9.35;54.74
71082;SHT31;58740;50.672;18.690;2023-05-10T00:50:56;9.35;54.76
71082;SHT31;58740;50.672;18.690;2023-05-10T00:53:24;9.35;54.79
71082;SHT31;58740;50.672;18.690;2023-05-10T00:55:52;9.36;54.74
71082;SHT31;58740;50.672;18.690;2023-05-10T00:58:20;9.35;54.69
71082;SHT31;58740;50.672;18.690;2023-05-10T01:00:48;9.36;54.69
71082;SHT31;58740;50.672;18.690;2023-05-10T01:03:18;9.37;54.76
71082;SHT31;58740;50.672;18.690;2023-05-10T01:05:46;9.36;54.77
71082;SHT31;58740;50.672;18.690;2023-05-10T01:08:14;9.35;54.84
71082;SHT31;58740;50.672;18.690;2023-05-10T01:10:42;9.32;54.91
71082;SHT31;58740;50.672;18.690;2023-05-10T01:13:11;9.30;55.02
71082;SHT31;58740;50.672;18.690;2023-05-10T01:15:40;9.28;55.03
71082;SHT31;58740;50.672;18.690;2023-05-10T01:18:08;9.26;55.18
71082;SHT31;58740;50.672;18.690;2023-05-10T01:20:39;9.24;55.18
71082;SHT31;58740;50.672;18.690;2023-05-10T01:24:26;9.24;55.29
71082;SHT31;58740;50.672;18.690;2023-05-10T01:35:40;9.20;55.48
71082;SHT31;58740;50.672;18.690;2023-05-10T01:41:15;9.18;55.57
71082;SHT31;58740;50.672;18.690;2023-05-10T01:44:09;9.12;55.68
71082;SHT31;58740;50.672;18.690;2023-05-10T01:47:09;9.09;55.80
71082;SHT31;58740;50.672;18.690;2023-05-10T01:49:50;9.10;55.86
71082;SHT31;58740;50.672;18.690;2023-05-10T01:52:25;9.10;55.82
71082;SHT31;58740;50.672;18.690;2023-05-10T01:55:01;9.10;55.88
71082;SHT31;58740;50.672;18.690;2023-05-10T01:57:34;9.11;55.92
71082;SHT31;58740;50.672;18.690;2023-05-10T02:00:06;9.09;55.88
71082;SHT31;58740;50.672;18.690;2023-05-10T02:02:38;9.07;55.91
71082;SHT31;58740;50.672;18.690;2023-05-10T02:05:09;9.06;56.03
71082;SHT31;58740;50.672;18.690;2023-05-10T02:07:41;9.05;56.06
71082;SHT31;58740;50.672;18.690;2023-05-10T02:10:11;9.03;56.08
71082;SHT31;58740;50.672;18.690;2023-05-10T02:12:43;9.02;56.20
71082;SHT31;58740;50.672;18.690;2023-05-10T02:15:17;9.02;56.21
71082;SHT31;58740;50.672;18.690;2023-05-10T02:17:50;8.98;56.22
71082;SHT31;58740;50.672;18.690;2023-05-10T02:20:22;8.93;56.26
71082;SHT31;58740;50.672;18.690;2023-05-10T02:22:53;8.88;56.31
71082;SHT31;58740;50.672;18.690;2023-05-10T02:25:24;8.85;56.37
71082;SHT31;58740;50.672;18.690;2023-05-10T02:27:53;8.80;56.43
71082;SHT31;58740;50.672;18.690;2023-05-10T02:30:24;8.76;56.52
71082;SHT31;58740;50.672;18.690;2023-05-10T02:32:53;8.70;56.59
71082;SHT31;58740;50.672;18.690;2023-05-10T02:35:23;8.66;56.68
71082;SHT31;58740;50.672;18.690;2023-05-10T02:37:54;8.67;56.77
71082;SHT31;58740;50.672;18.690;2023-05-10T02:40:23;8.65;56.81
71082;SHT31;58740;50.672;18.690;2023-05-10T02:42:56;8.63;56.89
71082;SHT31;58740;50.672;18.690;2023-05-10T02:45:26;8.61;57.04
71082;SHT31;58740;50.672;18.690;2023-05-10T02:47:58;8.59;57.07
71082;SHT31;58740;50.672;18.690;2023-05-10T02:50:27;8.56;57.17
71082;SHT31;58740;50.672;18.690;2023-05-10T02:53:01;8.54;57.23
71082;SHT31;58740;50.672;18.690;2023-05-10T02:55:40;8.49;57.38
71082;SHT31;58740;50.672;18.690;2023-05-10T02:58:10;8.47;57.49
71082;SHT31;58740;50.672;18.690;2023-05-10T03:00:38;8.47;57.60
71082;SHT31;58740;50.672;18.690;2023-05-10T03:03:05;8.43;57.71
71082;SHT31;58740;50.672;18.690;2023-05-10T03:05:34;8.38;57.86
71082;SHT31;58740;50.672;18.690;2023-05-10T03:08:02;8.35;58.00
71082;SHT31;58740;50.672;18.690;2023-05-10T03:10:31;8.30;58.11
71082;SHT31;58740;50.672;18.690;2023-05-10T03:13:12;8.27;58.26
71082;SHT31;58740;50.672;18.690;2023-05-10T03:16:03;8.22;58.44
71082;SHT31;58740;50.672;18.690;2023-05-10T03:18:44;8.18;58.57
71082;SHT31;58740;50.672;18.690;2023-05-10T03:21:22;8.13;58.74
71082;SHT31;58740;50.672;18.690;2023-05-10T03:24:07;8.08;58.92
71082;SHT31;58740;50.672;18.690;2023-05-10T03:26:40;8.05;59.02
71082;SHT31;58740;50.672;18.690;2023-05-10T03:29:12;8.05;59.06
71082;SHT31;58740;50.672;18.690;2023-05-10T03:31:42;8.06;59.09
71082;SHT31;58740;50.672;18.690;2023-05-10T03:34:10;8.09;59.13
71082;SHT31;58740;50.672;18.690;2023-05-10T03:36:38;8.07;59.19
71082;SHT31;58740;50.672;18.690;2023-05-10T03:39:06;8.02;59.34
71082;SHT31;58740;50.672;18.690;2023-05-10T03:41:33;7.98;59.48
71082;SHT31;58740;50.672;18.690;2023-05-10T03:44:01;7.97;59.58
71082;SHT31;58740;50.672;18.690;2023-05-10T03:46:29;7.97;59.62
71082;SHT31;58740;50.672;18.690;2023-05-10T03:48:57;7.98;59.68
71082;SHT31;58740;50.672;18.690;2023-05-10T03:51:25;7.96;59.76
71082;SHT31;58740;50.672;18.690;2023-05-10T03:53:55;7.95;59.79
71082;SHT31;58740;50.672;18.690;2023-05-10T03:56:23;7.98;59.88
71082;SHT31;58740;50.672;18.690;2023-05-10T03:58:50;7.98;59.88
71082;SHT31;58740;50.672;18.690;2023-05-10T04:01:18;7.99;59.87
71082;SHT31;58740;50.672;18.690;2023-05-10T04:03:46;8.03;59.88
71082;SHT31;58740;50.672;18.690;2023-05-10T04:06:14;8.07;59.84
71082;SHT31;58740;50.672;18.690;2023-05-10T04:08:41;8.09;59.81
71082;SHT31;58740;50.672;18.690;2023-05-10T04:11:10;8.09;59.82
71082;SHT31;58740;50.672;18.690;2023-05-10T04:13:40;8.09;59.87
71082;SHT31;58740;50.672;18.690;2023-05-10T04:16:07;8.10;59.85
71082;SHT31;58740;50.672;18.690;2023-05-10T04:18:36;8.14;59.84
71082;SHT31;58740;50.672;18.690;2023-05-10T04:21:04;8.19;59.81
71082;SHT31;58740;50.672;18.690;2023-05-10T04:23:31;8.23;59.79
71082;SHT31;58740;50.672;18.690;2023-05-10T04:26:00;8.27;59.79
71082;SHT31;58740;50.672;18.690;2023-05-10T04:28:29;8.28;59.77
71082;SHT31;58740;50.672;18.690;2023-05-10T04:31:00;8.29;59.77
71082;SHT31;58740;50.672;18.690;2023-05-10T04:33:33;8.33;59.72
71082;SHT31;58740;50.672;18.690;2023-05-10T04:36:02;8.37;59.77
71082;SHT31;58740;50.672;18.690;2023-05-10T04:38:30;8.46;59.80
71082;SHT31;58740;50.672;18.690;2023-05-10T04:41:05;8.55;59.74
71082;SHT31;58740;50.672;18.690;2023-05-10T04:43:34;8.64;59.59
71082;SHT31;58740;50.672;18.690;2023-05-10T04:46:03;8.71;59.30
71082;SHT31;58740;50.672;18.690;2023-05-10T04:48:32;8.75;59.31
71082;SHT31;58740;50.672;18.690;2023-05-10T04:51:00;8.81;59.33
71082;SHT31;58740;50.672;18.690;2023-05-10T04:53:28;8.88;59.16
71082;SHT31;58740;50.672;18.690;2023-05-10T04:55:56;8.92;59.08
71082;SHT31;58740;50.672;18.690;2023-05-10T04:58:23;8.96;59.13
71082;SHT31;58740;50.672;18.690;2023-05-10T05:00:51;9.03;59.21
71082;SHT31;58740;50.672;18.690;2023-05-10T05:03:19;9.10;59.22
71082;SHT31;58740;50.672;18.690;2023-05-10T05:05:47;9.16;59.15
71082;SHT31;58740;50.672;18.690;2023-05-10T05:08:15;9.24;59.04
71082;SHT31;58740;50.672;18.690;2023-05-10T05:10:42;9.34;58.86
71082;SHT31;58740;50.672;18.690;2023-05-10T05:13:12;9.42;58.78
71082;SHT31;58740;50.672;18.690;2023-05-10T05:15:40;9.51;58.72
71082;SHT31;58740;50.672;18.690;2023-05-10T05:18:08;9.60;58.54
71082;SHT31;58740;50.672;18.690;2023-05-10T05:20:36;9.70;58.47
71082;SHT31;58740;50.672;18.690;2023-05-10T05:23:03;9.82;58.43
71082;SHT31;58740;50.672;18.690;2023-05-10T05:25:31;9.93;58.30
71082;SHT31;58740;50.672;18.690;2023-05-10T05:27:59;10.03;58.11
71082;SHT31;58740;50.672;18.690;2023-05-10T05:30:27;10.14;58.13
71082;SHT31;58740;50.672;18.690;2023-05-10T05:32:54;10.27;58.12
71082;SHT31;58740;50.672;18.690;2023-05-10T05:35:23;10.40;57.37
71082;SHT31;58740;50.672;18.690;2023-05-10T05:37:51;10.53;56.94
71082;SHT31;58740;50.672;18.690;2023-05-10T05:40:19;10.65;56.75
71082;SHT31;58740;50.672;18.690;2023-05-10T05:42:47;10.78;56.44
71082;SHT31;58740;50.672;18.690;2023-05-10T05:45:15;10.89;56.04
71082;SHT31;58740;50.672;18.690;2023-05-10T05:47:43;11.02;56.06
71082;SHT31;58740;50.672;18.690;2023-05-10T05:50:11;11.17;55.50
71082;SHT31;58740;50.672;18.690;2023-05-10T05:52:39;11.31;54.99
71082;SHT31;58740;50.672;18.690;2023-05-10T05:55:07;11.45;54.75
71082;SHT31;58740;50.672;18.690;2023-05-10T05:57:35;11.62;54.71
71082;SHT31;58740;50.672;18.690;2023-05-10T06:00:03;11.75;54.10
71082;SHT31;58740;50.672;18.690;2023-05-10T06:02:31;11.89;53.68
71082;SHT31;58740;50.672;18.690;2023-05-10T06:04:59;12.04;53.10
71082;SHT31;58740;50.672;18.690;2023-05-10T06:07:26;12.18;53.05
71082;SHT31;58740;50.672;18.690;2023-05-10T06:09:54;12.33;52.41
71082;SHT31;58740;50.672;18.690;2023-05-10T06:12:22;12.48;52.23
71082;SHT31;58740;50.672;18.690;2023-05-10T06:14:49;12.60;51.29
71082;SHT31;58740;50.672;18.690;2023-05-10T06:17:17;12.74;50.59
71082;SHT31;58740;50.672;18.690;2023-05-10T06:19:45;12.85;49.91
71082;SHT31;58740;50.672;18.690;2023-05-10T06:22:13;12.96;49.50
71082;SHT31;58740;50.672;18.690;2023-05-10T06:24:40;13.08;49.61
71082;SHT31;58740;50.672;18.690;2023-05-10T06:27:08;13.21;49.06
71082;SHT31;58740;50.672;18.690;2023-05-10T06:29:36;13.34;48.61
71082;SHT31;58740;50.672;18.690;2023-05-10T06:32:04;13.45;48.95
71082;SHT31;58740;50.672;18.690;2023-05-10T06:34:31;13.60;48.85
71082;SHT31;58740;50.672;18.690;2023-05-10T06:36:59;13.73;47.68
71082;SHT31;58740;50.672;18.690;2023-05-10T06:39:27;13.85;47.67
71082;SHT31;58740;50.672;18.690;2023-05-10T06:41:56;13.96;46.53
71082;SHT31;58740;50.672;18.690;2023-05-10T06:44:24;14.04;46.61
71082;SHT31;58740;50.672;18.690;2023-05-10T06:46:51;14.14;46.38
71082;SHT31;58740;50.672;18.690;2023-05-10T06:49:21;14.21;45.97
71082;SHT31;58740;50.672;18.690;2023-05-10T06:51:49;14.30;46.49
71082;SHT31;58740;50.672;18.690;2023-05-10T06:54:17;14.42;46.24
71082;SHT31;58740;50.672;18.690;2023-05-10T06:56:45;14.52;45.27
71082;SHT31;58740;50.672;18.690;2023-05-10T06:59:12;14.58;44.78
71082;SHT31;58740;50.672;18.690;2023-05-10T07:01:40;14.66;45.73
71082;SHT31;58740;50.672;18.690;2023-05-10T07:04:08;14.79;45.29
71082;SHT31;58740;50.672;18.690;2023-05-10T07:06:36;14.85;44.19
71082;SHT31;58740;50.672;18.690;2023-05-10T07:09:04;14.92;44.54
71082;SHT31;58740;50.672;18.690;2023-05-10T07:11:31;15.00;44.07
71082;SHT31;58740;50.672;18.690;2023-05-10T07:13:59;15.07;43.41
71082;SHT31;58740;50.672;18.690;2023-05-10T07:16:27;15.15;43.68
71082;SHT31;58740;50.672;18.690;2023-05-10T07:18:56;15.23;43.36
71082;SHT31;58740;50.672;18.690;2023-05-10T07:21:23;15.27;42.92
71082;SHT31;58740;50.672;18.690;2023-05-10T07:23:51;15.31;43.19
71082;SHT31;58740;50.672;18.690;2023-05-10T07:26:19;15.40;43.26
71082;SHT31;58740;50.672;18.690;2023-05-10T07:28:48;15.51;42.87
71082;SHT31;58740;50.672;18.690;2023-05-10T07:31:15;15.62;42.17
71082;SHT31;58740;50.672;18.690;2023-05-10T07:33:43;15.66;41.13
71082;SHT31;58740;50.672;18.690;2023-05-10T07:36:11;15.71;41.08
71082;SHT31;58740;50.672;18.690;2023-05-10T07:38:38;15.73;40.46
71082;SHT31;58740;50.672;18.690;2023-05-10T07:41:07;15.76;40.36
71082;SHT31;58740;50.672;18.690;2023-05-10T07:43:35;15.79;40.96
71082;SHT31;58740;50.672;18.690;2023-05-10T07:46:02;15.87;41.08
71082;SHT31;58740;50.672;18.690;2023-05-10T07:48:30;15.94;40.13
71082;SHT31;58740;50.672;18.690;2023-05-10T07:50:59;16.01;40.35
71082;SHT31;58740;50.672;18.690;2023-05-10T07:53:26;16.07;39.85
71082;SHT31;58740;50.672;18.690;2023-05-10T07:55:57;16.12;40.07
71082;SHT31;58740;50.672;18.690;2023-05-10T07:58:25;16.19;40.08
71082;SHT31;58740;50.672;18.690;2023-05-10T08:00:54;16.27;39.94
71082;SHT31;58740;50.672;18.690;2023-05-10T08:03:21;16.36;40.18
71082;SHT31;58740;50.672;18.690;2023-05-10T08:05:49;16.44;41.57
71082;SHT31;58740;50.672;18.690;2023-05-10T08:08:17;16.56;40.56
71082;SHT31;58740;50.672;18.690;2023-05-10T08:10:45;16.62;39.50
71082;SHT31;58740;50.672;18.690;2023-05-10T08:13:12;16.63;39.39
71082;SHT31;58740;50.672;18.690;2023-05-10T08:15:40;16.67;39.65
71082;SHT31;58740;50.672;18.690;2023-05-10T08:18:08;16.75;40.23
71082;SHT31;58740;50.672;18.690;2023-05-10T08:20:36;16.81;39.18
71082;SHT31;58740;50.672;18.690;2023-05-10T08:23:03;16.89;39.75
71082;SHT31;58740;50.672;18.690;2023-05-10T08:25:31;17.01;39.61
71082;SHT31;58740;50.672;18.690;2023-05-10T08:27:59;17.04;37.81
71082;SHT31;58740;50.672;18.690;2023-05-10T08:30:27;16.97;37.01
71082;SHT31;58740;50.672;18.690;2023-05-10T08:32:55;16.93;37.47
71082;SHT31;58740;50.672;18.690;2023-05-10T08:35:23;16.91;37.82
71082;SHT31;58740;50.672;18.690;2023-05-10T08:37:52;16.94;37.60
71082;SHT31;58740;50.672;18.690;2023-05-10T08:40:19;17.03;38.81
71082;SHT31;58740;50.672;18.690;2023-05-10T08:42:58;17.14;37.94
71082;SHT31;58740;50.672;18.690;2023-05-10T08:45:36;17.18;38.05
71082;SHT31;58740;50.672;18.690;2023-05-10T08:48:07;17.22;37.51
71082;SHT31;58740;50.672;18.690;2023-05-10T08:50:38;17.20;36.86
71082;SHT31;58740;50.672;18.690;2023-05-10T08:53:12;17.18;36.62
71082;SHT31;58740;50.672;18.690;2023-05-10T08:55:41;17.21;37.03
71082;SHT31;58740;50.672;18.690;2023-05-10T08:58:10;17.29;37.08
71082;SHT31;58740;50.672;18.690;2023-05-10T09:00:37;17.27;36.20
71082;SHT31;58740;50.672;18.690;2023-05-10T09:03:05;17.17;36.48
71082;SHT31;58740;50.672;18.690;2023-05-10T09:05:33;17.15;36.93
71082;SHT31;58740;50.672;18.690;2023-05-10T09:08:03;17.24;36.40
71082;SHT31;58740;50.672;18.690;2023-05-10T09:10:33;17.19;36.10
71082;SHT31;58740;50.672;18.690;2023-05-10T09:13:01;17.12;36.66
71082;SHT31;58740;50.672;18.690;2023-05-10T09:15:30;17.15;37.36
71082;SHT31;58740;50.672;18.690;2023-05-10T09:17:58;17.24;36.44
71082;SHT31;58740;50.672;18.690;2023-05-10T09:20:29;17.31;36.12
71082;SHT31;58740;50.672;18.690;2023-05-10T09:22:58;17.37;35.84
71082;SHT31;58740;50.672;18.690;2023-05-10T09:25:26;17.38;36.64
71082;SHT31;58740;50.672;18.690;2023-05-10T09:27:54;17.47;36.61
71082;SHT31;58740;50.672;18.690;2023-05-10T09:30:26;17.49;36.16
71082;SHT31;58740;50.672;18.690;2023-05-10T09:32:56;17.52;36.27
71082;SHT31;58740;50.672;18.690;2023-05-10T09:35:27;17.50;36.18
71082;SHT31;58740;50.672;18.690;2023-05-10T09:38:02;17.57;36.18
71082;SHT31;58740;50.672;18.690;2023-05-10T09:40:32;17.64;35.31
71082;SHT31;58740;50.672;18.690;2023-05-10T09:43:01;17.69;35.43
71082;SHT31;58740;50.672;18.690;2023-05-10T09:45:33;17.75;35.81
71082;SHT31;58740;50.672;18.690;2023-05-10T09:48:05;17.85;36.54
71082;SHT31;58740;50.672;18.690;2023-05-10T09:50:34;17.95;35.34
71082;SHT31;58740;50.672;18.690;2023-05-10T09:53:02;18.00;35.24
71082;SHT31;58740;50.672;18.690;2023-05-10T09:55:41;18.03;35.76
71082;SHT31;58740;50.672;18.690;2023-05-10T09:58:16;18.11;35.93
71082;SHT31;58740;50.672;18.690;2023-05-10T10:00:45;18.21;35.56
71082;SHT31;58740;50.672;18.690;2023-05-10T10:03:19;18.23;35.25
71082;SHT31;58740;50.672;18.690;2023-05-10T10:05:48;18.14;34.78
71082;SHT31;58740;50.672;18.690;2023-05-10T10:08:17;18.03;35.04
71082;SHT31;58740;50.672;18.690;2023-05-10T10:10:45;18.06;35.10
71082;SHT31;58740;50.672;18.690;2023-05-10T10:13:14;18.04;34.91
71082;SHT31;58740;50.672;18.690;2023-05-10T10:15:42;18.14;35.10
71082;SHT31;58740;50.672;18.690;2023-05-10T10:18:12;18.25;34.68
71082;SHT31;58740;50.672;18.690;2023-05-10T10:20:42;18.31;34.69
71082;SHT31;58740;50.672;18.690;2023-05-10T10:23:10;18.36;34.65
71082;SHT31;58740;50.672;18.690;2023-05-10T10:25:38;18.37;34.14
71082;SHT31;58740;50.672;18.690;2023-05-10T10:34:35;18.59;34.90
71082;SHT31;58740;50.672;18.690;2023-05-10T10:37:04;18.61;34.43
71082;SHT31;58740;50.672;18.690;2023-05-10T10:39:33;18.60;33.55
71082;SHT31;58740;50.672;18.690;2023-05-10T10:42:04;18.60;33.68
71082;SHT31;58740;50.672;18.690;2023-05-10T10:47:09;18.67;33.22
71082;SHT31;58740;50.672;18.690;2023-05-10T10:49:42;18.75;33.84
71082;SHT31;58740;50.672;18.690;2023-05-10T10:55:01;18.81;33.71
71082;SHT31;58740;50.672;18.690;2023-05-10T10:57:54;18.82;33.58
71082;SHT31;58740;50.672;18.690;2023-05-10T11:00:32;18.80;32.96
71082;SHT31;58740;50.672;18.690;2023-05-10T11:03:05;18.71;32.73
71082;SHT31;58740;50.672;18.690;2023-05-10T11:05:47;18.63;32.60
71082;SHT31;58740;50.672;18.690;2023-05-10T11:08:25;18.51;32.15
71082;SHT31;58740;50.672;18.690;2023-05-10T11:13:31;18.27;32.94
71082;SHT31;58740;50.672;18.690;2023-05-10T11:21:24;18.24;34.63
71082;SHT31;58740;50.672;18.690;2023-05-10T11:23:52;18.27;34.92
71082;SHT31;58740;50.672;18.690;2023-05-10T11:26:29;18.25;35.54
71082;SHT31;58740;50.672;18.690;2023-05-10T11:29:01;18.20;36.15
71082;SHT31;58740;50.672;18.690;2023-05-10T11:31:30;18.18;36.34
71082;SHT31;58740;50.672;18.690;2023-05-10T11:33:59;18.10;36.14
71082;SHT31;58740;50.672;18.690;2023-05-10T11:36:35;18.08;36.41
71082;SHT31;58740;50.672;18.690;2023-05-10T11:39:04;18.09;36.11
71082;SHT31;58740;50.672;18.690;2023-05-10T11:41:34;18.05;35.85
71082;SHT31;58740;50.672;18.690;2023-05-10T11:44:02;17.99;35.97
71082;SHT31;58740;50.672;18.690;2023-05-10T11:46:30;17.95;36.07
71082;SHT31;58740;50.672;18.690;2023-05-10T11:48:59;17.90;36.44
71082;SHT31;58740;50.672;18.690;2023-05-10T11:51:35;17.90;37.02
71082;SHT31;58740;50.672;18.690;2023-05-10T11:54:07;17.88;37.02
71082;SHT31;58740;50.672;18.690;2023-05-10T11:56:38;17.86;36.92
71082;SHT31;58740;50.672;18.690;2023-05-10T11:59:07;17.87;36.39
71082;SHT31;58740;50.672;18.690;2023-05-10T12:01:35;17.89;35.74
71082;SHT31;58740;50.672;18.690;2023-05-10T12:04:04;17.87;34.67
71082;SHT31;58740;50.672;18.690;2023-05-10T12:06:32;17.83;34.69
71082;SHT31;58740;50.672;18.690;2023-05-10T12:09:08;17.82;34.93
71082;SHT31;58740;50.672;18.690;2023-05-10T12:11:37;17.83;35.22
71082;SHT31;58740;50.672;18.690;2023-05-10T12:14:10;17.83;34.75
71082;SHT31;58740;50.672;18.690;2023-05-10T12:16:38;17.82;34.51
71082;SHT31;58740;50.672;18.690;2023-05-10T12:19:06;17.79;35.64
71082;SHT31;58740;50.672;18.690;2023-05-10T12:21:34;17.80;37.13
71082;SHT31;58740;50.672;18.690;2023-05-10T12:24:02;17.88;37.37
71082;SHT31;58740;50.672;18.690;2023-05-10T12:26:32;18.01;37.43
71082;SHT31;58740;50.672;18.690;2023-05-10T12:29:12;18.13;37.57
71082;SHT31;58740;50.672;18.690;2023-05-10T12:31:54;18.23;37.78
71082;SHT31;58740;50.672;18.690;2023-05-10T12:34:32;18.30;36.14
71082;SHT31;58740;50.672;18.690;2023-05-10T12:37:04;18.29;35.94
71082;SHT31;58740;50.672;18.690;2023-05-10T12:39:38;18.29;35.38
71082;SHT31;58740;50.672;18.690;2023-05-10T12:42:11;18.31;35.09
71082;SHT31;58740;50.672;18.690;2023-05-10T12:44:39;18.32;35.04
71082;SHT31;58740;50.672;18.690;2023-05-10T12:47:07;18.36;34.85
71082;SHT31;58740;50.672;18.690;2023-05-10T12:49:37;18.42;34.44
71082;SHT31;58740;50.672;18.690;2023-05-10T12:52:05;18.45;34.61
71082;SHT31;58740;50.672;18.690;2023-05-10T12:54:36;18.43;34.84
71082;SHT31;58740;50.672;18.690;2023-05-10T12:57:04;18.38;35.74
71082;SHT31;58740;50.672;18.690;2023-05-10T12:59:35;18.38;36.01
71082;SHT31;58740;50.672;18.690;2023-05-10T13:02:05;18.41;36.25
71082;SHT31;58740;50.672;18.690;2023-05-10T13:04:34;18.48;35.52
71082;SHT31;58740;50.672;18.690;2023-05-10T13:07:02;18.44;35.78
71082;SHT31;58740;50.672;18.690;2023-05-10T13:09:30;18.45;36.17
71082;SHT31;58740;50.672;18.690;2023-05-10T13:11:58;18.43;36.21
71082;SHT31;58740;50.672;18.690;2023-05-10T13:14:26;18.39;35.61
71082;SHT31;58740;50.672;18.690;2023-05-10T13:16:54;18.37;35.16
71082;SHT31;58740;50.672;18.690;2023-05-10T13:19:24;18.37;35.41
71082;SHT31;58740;50.672;18.690;2023-05-10T13:21:51;18.42;35.30
71082;SHT31;58740;50.672;18.690;2023-05-10T13:24:19;18.50;34.69
71082;SHT31;58740;50.672;18.690;2023-05-10T13:26:47;18.53;34.49
71082;SHT31;58740;50.672;18.690;2023-05-10T13:29:16;18.58;33.89
71082;SHT31;58740;50.672;18.690;2023-05-10T13:31:45;18.57;34.12
71082;SHT31;58740;50.672;18.690;2023-05-10T13:34:16;18.54;34.96
71082;SHT31;58740;50.672;18.690;2023-05-10T13:36:47;18.51;34.32
71082;SHT31;58740;50.672;18.690;2023-05-10T13:39:16;18.48;35.49
71082;SHT31;58740;50.672;18.690;2023-05-10T13:41:44;18.44;35.99
71082;SHT31;58740;50.672;18.690;2023-05-10T13:44:12;18.40;36.27
71082;SHT31;58740;50.672;18.690;2023-05-10T13:46:41;18.36;36.26
71082;SHT31;58740;50.672;18.690;2023-05-10T13:49:12;18.31;36.62
71082;SHT31;58740;50.672;18.690;2023-05-10T13:51:40;18.27;36.94
71082;SHT31;58740;50.672;18.690;2023-05-10T13:54:08;18.23;37.04
71082;SHT31;58740;50.672;18.690;2023-05-10T13:56:38;18.19;37.40
71082;SHT31;58740;50.672;18.690;2023-05-10T13:59:06;18.17;37.14
71082;SHT31;58740;50.672;18.690;2023-05-10T14:01:35;18.19;36.99
71082;SHT31;58740;50.672;18.690;2023-05-10T14:04:03;18.23;36.78
71082;SHT31;58740;50.672;18.690;2023-05-10T14:06:31;18.26;36.61
71082;SHT31;58740;50.672;18.690;2023-05-10T14:08:59;18.30;36.27
71082;SHT31;58740;50.672;18.690;2023-05-10T14:11:27;18.34;36.27
71082;SHT31;58740;50.672;18.690;2023-05-10T14:13:55;18.37;35.62
71082;SHT31;58740;50.672;18.690;2023-05-10T14:16:23;18.44;35.58
71082;SHT31;58740;50.672;18.690;2023-05-10T14:18:51;18.52;35.76
71082;SHT31;58740;50.672;18.690;2023-05-10T14:21:19;18.55;35.09
71082;SHT31;58740;50.672;18.690;2023-05-10T14:23:46;18.56;34.88
71082;SHT31;58740;50.672;18.690;2023-05-10T14:26:14;18.53;34.81
71082;SHT31;58740;50.672;18.690;2023-05-10T14:28:42;18.52;34.95
71082;SHT31;58740;50.672;18.690;2023-05-10T14:31:10;18.50;35.91
71082;SHT31;58740;50.672;18.690;2023-05-10T14:33:38;18.52;36.36
71082;SHT31;58740;50.672;18.690;2023-05-10T14:36:06;18.52;35.95
71082;SHT31;58740;50.672;18.690;2023-05-10T14:38:34;18.50;35.64
71082;SHT31;58740;50.672;18.690;2023-05-10T14:41:02;18.50;35.40
71082;SHT31;58740;50.672;18.690;2023-05-10T14:43:30;18.47;35.44
71082;SHT31;58740;50.672;18.690;2023-05-10T14:45:58;18.47;35.53
71082;SHT31;58740;50.672;18.690;2023-05-10T14:48:26;18.50;36.35
71082;SHT31;58740;50.672;18.690;2023-05-10T14:50:53;18.55;36.94
71082;SHT31;58740;50.672;18.690;2023-05-10T14:53:36;18.56;36.97
71082;SHT31;58740;50.672;18.690;2023-05-10T14:56:04;18.58;36.93
71082;SHT31;58740;50.672;18.690;2023-05-10T14:58:32;18.58;37.11
71082;SHT31;58740;50.672;18.690;2023-05-10T15:01:00;18.55;37.07
71082;SHT31;58740;50.672;18.690;2023-05-10T15:03:29;18.51;37.26
71082;SHT31;58740;50.672;18.690;2023-05-10T15:05:57;18.47;36.94
71082;SHT31;58740;50.672;18.690;2023-05-10T15:08:25;18.42;36.94
71082;SHT31;58740;50.672;18.690;2023-05-10T15:10:53;18.37;37.00
71082;SHT31;58740;50.672;18.690;2023-05-10T15:13:22;18.31;37.04
71082;SHT31;58740;50.672;18.690;2023-05-10T15:15:50;18.25;37.37
71082;SHT31;58740;50.672;18.690;2023-05-10T15:18:18;18.19;37.75
71082;SHT31;58740;50.672;18.690;2023-05-10T15:20:46;18.15;37.27
71082;SHT31;58740;50.672;18.690;2023-05-10T15:23:13;18.12;36.79
71082;SHT31;58740;50.672;18.690;2023-05-10T15:25:41;18.11;36.96
71082;SHT31;58740;50.672;18.690;2023-05-10T15:28:09;18.08;37.05
71082;SHT31;58740;50.672;18.690;2023-05-10T15:30:37;18.09;36.59
71082;SHT31;58740;50.672;18.690;2023-05-10T15:33:05;18.08;36.84
71082;SHT31;58740;50.672;18.690;2023-05-10T15:35:33;18.08;37.14
71082;SHT31;58740;50.672;18.690;2023-05-10T15:38:03;18.06;36.99
71082;SHT31;58740;50.672;18.690;2023-05-10T15:40:30;18.02;37.06
71082;SHT31;58740;50.672;18.690;2023-05-10T15:42:58;18.00;37.22
71082;SHT31;58740;50.672;18.690;2023-05-10T15:45:26;17.98;36.88
71082;SHT31;58740;50.672;18.690;2023-05-10T15:47:54;17.97;37.01
71082;SHT31;58740;50.672;18.690;2023-05-10T15:50:22;17.94;37.11
71082;SHT31;58740;50.672;18.690;2023-05-10T15:52:49;17.92;37.37
71082;SHT31;58740;50.672;18.690;2023-05-10T15:55:17;17.92;37.30
71082;SHT31;58740;50.672;18.690;2023-05-10T15:57:46;17.89;37.44
71082;SHT31;58740;50.672;18.690;2023-05-10T16:00:15;17.87;37.92
71082;SHT31;58740;50.672;18.690;2023-05-10T16:02:44;17.86;38.08
71082;SHT31;58740;50.672;18.690;2023-05-10T16:05:12;17.84;37.82
71082;SHT31;58740;50.672;18.690;2023-05-10T16:07:40;17.82;37.89